sensor_id;sensor_type;location;lat;lon;timestamp;pressure;altitude;pressure_sealevel;temperature
68588;BMP180;55560;52.174;20.996;2022-08-19T00:00:10;100247.80;;;23.60
68588;BMP180;55560;52.174;20.996;2022-08-19T00:02:58;100246.00;;;23.60
68588;BMP180;55560;52.174;20.996;2022-08-19T00:05:26;100245.20;;;23.60
68588;BMP180;55560;52.174;20.996;2022-08-19T00:07:54;100244.20;;;23.60
68588;BMP180;55560;52.174;20.996;2022-08-19T00:10:22;100242.00;;;23.50
68588;BMP180;55560;52.174;20.996;2022-08-19T00:12:52;100242.40;;;23.50
68588;BMP180;55560;52.174;20.996;2022-08-19T00:15:21;100240.60;;;23.50
68588;BMP180;55560;52.174;20.996;2022-08-19T00:17:49;100240.60;;;23.50
68588;BMP180;55560;52.174;20.996;2022-08-19T00:20:20;100240.00;;;23.50
68588;BMP180;55560;52.174;20.996;2022-08-19T00:22:49;100244.60;;;23.50
68588;BMP180;55560;52.174;20.996;2022-08-19T00:25:17;100250.60;;;23.40
68588;BMP180;55560;52.174;20.996;2022-08-19T00:27:57;100252.40;;;23.40
68588;BMP180;55560;52.174;20.996;2022-08-19T00:30:26;100250.20;;;23.40
68588;BMP180;55560;52.174;20.996;2022-08-19T00:32:57;100249.80;;;23.40
68588;BMP180;55560;52.174;20.996;2022-08-19T00:35:25;100251.80;;;23.40
68588;BMP180;55560;52.174;20.996;2022-08-19T00:37:55;100251.60;;;23.38
68588;BMP180;55560;52.174;20.996;2022-08-19T00:40:23;100248.60;;;23.30
68588;BMP180;55560;52.174;20.996;2022-08-19T00:42:52;100244.20;;;23.30
68588;BMP180;55560;52.174;20.996;2022-08-19T00:45:25;100243.20;;;23.30
68588;BMP180;55560;52.174;20.996;2022-08-19T00:47:53;100242.80;;;23.30
68588;BMP180;55560;52.174;20.996;2022-08-19T00:50:21;100239.80;;;23.20
68588;BMP180;55560;52.174;20.996;2022-08-19T00:52:50;100234.80;;;23.20
68588;BMP180;55560;52.174;20.996;2022-08-19T00:55:24;100231.80;;;23.20
68588;BMP180;55560;52.174;20.996;2022-08-19T00:58:02;100228.20;;;23.20
68588;BMP180;55560;52.174;20.996;2022-08-19T01:00:31;100226.60;;;23.18
68588;BMP180;55560;52.174;20.996;2022-08-19T01:03:11;100230.60;;;23.10
68588;BMP180;55560;52.174;20.996;2022-08-19T01:05:42;100243.00;;;23.12
68588;BMP180;55560;52.174;20.996;2022-08-19T01:08:12;100251.00;;;23.10
68588;BMP180;55560;52.174;20.996;2022-08-19T01:10:49;100250.20;;;23.10
68588;BMP180;55560;52.174;20.996;2022-08-19T01:13:21;100244.00;;;23.10
68588;BMP180;55560;52.174;20.996;2022-08-19T01:15:55;100247.20;;;23.10
68588;BMP180;55560;52.174;20.996;2022-08-19T01:18:24;100255.80;;;23.10
68588;BMP180;55560;52.174;20.996;2022-08-19T01:20:56;100252.00;;;23.10
68588;BMP180;55560;52.174;20.996;2022-08-19T01:23:25;100254.60;;;23.10
68588;BMP180;55560;52.174;20.996;2022-08-19T01:26:17;100257.40;;;23.10
68588;BMP180;55560;52.174;20.996;2022-08-19T01:28:48;100254.20;;;23.00
68588;BMP180;55560;52.174;20.996;2022-08-19T01:31:26;100253.40;;;23.00
68588;BMP180;55560;52.174;20.996;2022-08-19T01:33:56;100253.80;;;23.00
68588;BMP180;55560;52.174;20.996;2022-08-19T01:36:35;100251.80;;;23.00
68588;BMP180;55560;52.174;20.996;2022-08-19T01:39:10;100253.60;;;23.00
68588;BMP180;55560;52.174;20.996;2022-08-19T01:41:38;100253.00;;;22.90
68588;BMP180;55560;52.174;20.996;2022-08-19T01:44:08;100247.20;;;22.90
68588;BMP180;55560;52.174;20.996;2022-08-19T01:46:48;100246.80;;;22.90
68588;BMP180;55560;52.174;20.996;2022-08-19T01:49:19;100242.80;;;22.90
68588;BMP180;55560;52.174;20.996;2022-08-19T01:51:49;100240.20;;;22.80
68588;BMP180;55560;52.174;20.996;2022-08-19T01:54:19;100240.60;;;22.80
68588;BMP180;55560;52.174;20.996;2022-08-19T01:57:03;100241.40;;;22.80
68588;BMP180;55560;52.174;20.996;2022-08-19T01:59:33;100238.00;;;22.80
68588;BMP180;55560;52.174;20.996;2022-08-19T02:02:05;100241.20;;;22.80
68588;BMP180;55560;52.174;20.996;2022-08-19T02:04:36;100243.00;;;22.80
68588;BMP180;55560;52.174;20.996;2022-08-19T02:07:08;100239.80;;;22.74
68588;BMP180;55560;52.174;20.996;2022-08-19T02:09:36;100238.60;;;22.70
68588;BMP180;55560;52.174;20.996;2022-08-19T02:12:06;100237.40;;;22.70
68588;BMP180;55560;52.174;20.996;2022-08-19T02:14:36;100236.60;;;22.70
68588;BMP180;55560;52.174;20.996;2022-08-19T02:17:04;100228.40;;;22.70
68588;BMP180;55560;52.174;20.996;2022-08-19T02:19:32;100227.20;;;22.70
68588;BMP180;55560;52.174;20.996;2022-08-19T02:22:00;100221.40;;;22.64
68588;BMP180;55560;52.174;20.996;2022-08-19T02:24:28;100219.60;;;22.60
68588;BMP180;55560;52.174;20.996;2022-08-19T02:26:56;100220.40;;;22.58
68588;BMP180;55560;52.174;20.996;2022-08-19T02:29:24;100216.60;;;22.50
68588;BMP180;55560;52.174;20.996;2022-08-19T02:31:52;100216.80;;;22.50
68588;BMP180;55560;52.174;20.996;2022-08-19T02:34:21;100217.80;;;22.50
68588;BMP180;55560;52.174;20.996;2022-08-19T02:36:49;100222.00;;;22.48
68588;BMP180;55560;52.174;20.996;2022-08-19T02:39:19;100221.20;;;22.40
68588;BMP180;55560;52.174;20.996;2022-08-19T02:41:46;100215.80;;;22.40
68588;BMP180;55560;52.174;20.996;2022-08-19T02:44:14;100214.80;;;22.30
68588;BMP180;55560;52.174;20.996;2022-08-19T02:46:58;100217.40;;;22.30
68588;BMP180;55560;52.174;20.996;2022-08-19T02:49:26;100219.40;;;22.30
68588;BMP180;55560;52.174;20.996;2022-08-19T02:51:54;100226.80;;;22.22
68588;BMP180;55560;52.174;20.996;2022-08-19T02:54:22;100227.60;;;22.20
68588;BMP180;55560;52.174;20.996;2022-08-19T02:56:50;100222.00;;;22.20
68588;BMP180;55560;52.174;20.996;2022-08-19T02:59:18;100220.20;;;22.20
68588;BMP180;55560;52.174;20.996;2022-08-19T03:01:49;100219.60;;;22.20
68588;BMP180;55560;52.174;20.996;2022-08-19T03:04:18;100219.80;;;22.20
68588;BMP180;55560;52.174;20.996;2022-08-19T03:06:47;100222.60;;;22.20
68588;BMP180;55560;52.174;20.996;2022-08-19T03:09:17;100228.80;;;22.20
68588;BMP180;55560;52.174;20.996;2022-08-19T03:11:46;100224.00;;;22.20
68588;BMP180;55560;52.174;20.996;2022-08-19T03:14:19;100225.00;;;22.20
68588;BMP180;55560;52.174;20.996;2022-08-19T03:16:51;100225.40;;;22.20
68588;BMP180;55560;52.174;20.996;2022-08-19T03:19:20;100225.20;;;22.10
68588;BMP180;55560;52.174;20.996;2022-08-19T03:21:50;100222.20;;;22.10
68588;BMP180;55560;52.174;20.996;2022-08-19T03:24:19;100220.20;;;22.10
68588;BMP180;55560;52.174;20.996;2022-08-19T03:26:51;100215.60;;;22.10
68588;BMP180;55560;52.174;20.996;2022-08-19T03:29:20;100215.80;;;22.10
68588;BMP180;55560;52.174;20.996;2022-08-19T03:32:04;100219.00;;;22.10
68588;BMP180;55560;52.174;20.996;2022-08-19T03:34:36;100221.80;;;22.10
68588;BMP180;55560;52.174;20.996;2022-08-19T03:37:10;100226.20;;;22.10
68588;BMP180;55560;52.174;20.996;2022-08-19T03:39:41;100226.20;;;22.10
68588;BMP180;55560;52.174;20.996;2022-08-19T03:42:09;100225.60;;;22.10
68588;BMP180;55560;52.174;20.996;2022-08-19T03:44:58;100229.20;;;22.10
68588;BMP180;55560;52.174;20.996;2022-08-19T03:47:25;100230.80;;;22.10
68588;BMP180;55560;52.174;20.996;2022-08-19T03:49:53;100239.20;;;22.10
68588;BMP180;55560;52.174;20.996;2022-08-19T03:52:22;100236.60;;;22.10
68588;BMP180;55560;52.174;20.996;2022-08-19T03:54:49;100235.80;;;22.02
68588;BMP180;55560;52.174;20.996;2022-08-19T03:57:17;100242.40;;;22.08
68588;BMP180;55560;52.174;20.996;2022-08-19T03:59:45;100245.60;;;22.04
68588;BMP180;55560;52.174;20.996;2022-08-19T04:02:13;100244.40;;;22.10
68588;BMP180;55560;52.174;20.996;2022-08-19T04:04:43;100244.00;;;22.10
68588;BMP180;55560;52.174;20.996;2022-08-19T04:07:13;100244.00;;;22.10
68588;BMP180;55560;52.174;20.996;2022-08-19T04:09:43;100245.60;;;22.20
68588;BMP180;55560;52.174;20.996;2022-08-19T04:12:11;100242.20;;;22.20
68588;BMP180;55560;52.174;20.996;2022-08-19T04:14:39;100239.80;;;22.20
68588;BMP180;55560;52.174;20.996;2022-08-19T04:17:07;100236.00;;;22.20
68588;BMP180;55560;52.174;20.996;2022-08-19T04:19:36;100237.00;;;22.28
68588;BMP180;55560;52.174;20.996;2022-08-19T04:22:04;100234.60;;;22.30
68588;BMP180;55560;52.174;20.996;2022-08-19T04:24:34;100228.20;;;22.30
68588;BMP180;55560;52.174;20.996;2022-08-19T04:27:03;100233.40;;;22.40
68588;BMP180;55560;52.174;20.996;2022-08-19T04:29:33;100234.60;;;22.44
68588;BMP180;55560;52.174;20.996;2022-08-19T04:32:02;100235.20;;;22.50
68588;BMP180;55560;52.174;20.996;2022-08-19T04:34:37;100236.00;;;22.60
68588;BMP180;55560;52.174;20.996;2022-08-19T04:37:27;100239.80;;;22.70
68588;BMP180;55560;52.174;20.996;2022-08-19T04:40:05;100238.80;;;22.80
68588;BMP180;55560;52.174;20.996;2022-08-19T04:42:52;100246.60;;;22.90
68588;BMP180;55560;52.174;20.996;2022-08-19T04:45:21;100241.80;;;22.90
68588;BMP180;55560;52.174;20.996;2022-08-19T04:47:54;100240.40;;;23.00
68588;BMP180;55560;52.174;20.996;2022-08-19T04:50:44;100234.60;;;23.10
68588;BMP180;55560;52.174;20.996;2022-08-19T04:53:12;100235.20;;;23.18
68588;BMP180;55560;52.174;20.996;2022-08-19T04:55:42;100232.80;;;23.20
68588;BMP180;55560;52.174;20.996;2022-08-19T04:58:10;100242.00;;;23.30
68588;BMP180;55560;52.174;20.996;2022-08-19T05:00:39;100236.40;;;23.30
68588;BMP180;55560;52.174;20.996;2022-08-19T05:03:07;100237.60;;;23.40
68588;BMP180;55560;52.174;20.996;2022-08-19T05:05:40;100240.60;;;23.40
68588;BMP180;55560;52.174;20.996;2022-08-19T05:08:18;100240.20;;;23.46
68588;BMP180;55560;52.174;20.996;2022-08-19T05:10:58;100238.60;;;23.50
68588;BMP180;55560;52.174;20.996;2022-08-19T05:13:26;100236.00;;;23.50
68588;BMP180;55560;52.174;20.996;2022-08-19T05:15:57;100237.20;;;23.46
68588;BMP180;55560;52.174;20.996;2022-08-19T05:18:26;100233.00;;;23.50
68588;BMP180;55560;52.174;20.996;2022-08-19T05:21:15;100236.40;;;23.50
68588;BMP180;55560;52.174;20.996;2022-08-19T05:24:04;100235.40;;;23.50
68588;BMP180;55560;52.174;20.996;2022-08-19T05:26:38;100244.20;;;23.50
68588;BMP180;55560;52.174;20.996;2022-08-19T05:29:07;100246.80;;;23.60
68588;BMP180;55560;52.174;20.996;2022-08-19T05:31:37;100244.40;;;23.58
68588;BMP180;55560;52.174;20.996;2022-08-19T05:34:09;100246.20;;;23.60
68588;BMP180;55560;52.174;20.996;2022-08-19T05:36:49;100249.40;;;23.60
68588;BMP180;55560;52.174;20.996;2022-08-19T05:39:20;100249.20;;;23.70
68588;BMP180;55560;52.174;20.996;2022-08-19T05:41:53;100252.80;;;23.70
68588;BMP180;55560;52.174;20.996;2022-08-19T05:44:24;100258.80;;;23.80
68588;BMP180;55560;52.174;20.996;2022-08-19T05:46:53;100264.20;;;23.80
68588;BMP180;55560;52.174;20.996;2022-08-19T05:49:22;100272.60;;;23.82
68588;BMP180;55560;52.174;20.996;2022-08-19T05:51:51;100270.60;;;23.90
68588;BMP180;55560;52.174;20.996;2022-08-19T05:54:19;100266.40;;;23.90
68588;BMP180;55560;52.174;20.996;2022-08-19T05:56:47;100267.40;;;23.90
68588;BMP180;55560;52.174;20.996;2022-08-19T05:59:16;100260.80;;;24.00
68588;BMP180;55560;52.174;20.996;2022-08-19T06:01:46;100254.00;;;24.00
68588;BMP180;55560;52.174;20.996;2022-08-19T06:04:19;100251.20;;;24.10
68588;BMP180;55560;52.174;20.996;2022-08-19T06:06:53;100248.60;;;24.20
68588;BMP180;55560;52.174;20.996;2022-08-19T06:09:22;100239.80;;;24.68
68588;BMP180;55560;52.174;20.996;2022-08-19T06:11:56;100241.20;;;25.34
68588;BMP180;55560;52.174;20.996;2022-08-19T06:14:30;100237.40;;;25.40
68588;BMP180;55560;52.174;20.996;2022-08-19T06:17:00;100238.20;;;25.30
68588;BMP180;55560;52.174;20.996;2022-08-19T06:19:33;100245.60;;;25.20
68588;BMP180;55560;52.174;20.996;2022-08-19T06:22:07;100250.40;;;25.10
68588;BMP180;55560;52.174;20.996;2022-08-19T06:24:35;100258.00;;;25.00
68588;BMP180;55560;52.174;20.996;2022-08-19T06:27:03;100261.60;;;25.00
68588;BMP180;55560;52.174;20.996;2022-08-19T06:29:33;100262.60;;;24.90
68588;BMP180;55560;52.174;20.996;2022-08-19T06:32:03;100255.40;;;24.88
68588;BMP180;55560;52.174;20.996;2022-08-19T06:34:33;100258.40;;;24.90
68588;BMP180;55560;52.174;20.996;2022-08-19T06:37:02;100267.40;;;24.90
68588;BMP180;55560;52.174;20.996;2022-08-19T06:39:35;100269.60;;;24.90
68588;BMP180;55560;52.174;20.996;2022-08-19T06:42:05;100265.60;;;24.90
68588;BMP180;55560;52.174;20.996;2022-08-19T06:44:41;100264.80;;;24.98
68588;BMP180;55560;52.174;20.996;2022-08-19T06:47:21;100265.40;;;25.00
68588;BMP180;55560;52.174;20.996;2022-08-19T06:49:57;100268.60;;;25.00
68588;BMP180;55560;52.174;20.996;2022-08-19T06:52:33;100269.60;;;25.00
68588;BMP180;55560;52.174;20.996;2022-08-19T06:55:04;100268.20;;;25.06
68588;BMP180;55560;52.174;20.996;2022-08-19T06:57:34;100264.80;;;25.24
68588;BMP180;55560;52.174;20.996;2022-08-19T07:00:04;100257.60;;;25.86
68588;BMP180;55560;52.174;20.996;2022-08-19T07:02:36;100259.80;;;26.50
68588;BMP180;55560;52.174;20.996;2022-08-19T07:05:05;100263.00;;;26.70
68588;BMP180;55560;52.174;20.996;2022-08-19T07:07:34;100264.40;;;26.70
68588;BMP180;55560;52.174;20.996;2022-08-19T07:10:04;100268.40;;;26.62
68588;BMP180;55560;52.174;20.996;2022-08-19T07:12:34;100272.80;;;26.50
68588;BMP180;55560;52.174;20.996;2022-08-19T07:15:06;100274.80;;;26.50
68588;BMP180;55560;52.174;20.996;2022-08-19T07:17:37;100277.60;;;26.60
68588;BMP180;55560;52.174;20.996;2022-08-19T07:20:10;100283.40;;;26.70
68588;BMP180;55560;52.174;20.996;2022-08-19T07:22:38;100276.80;;;26.70
68588;BMP180;55560;52.174;20.996;2022-08-19T07:25:08;100272.20;;;26.80
68588;BMP180;55560;52.174;20.996;2022-08-19T07:27:36;100275.00;;;26.80
68588;BMP180;55560;52.174;20.996;2022-08-19T07:30:08;100273.40;;;26.80
68588;BMP180;55560;52.174;20.996;2022-08-19T07:32:40;100260.40;;;26.82
68588;BMP180;55560;52.174;20.996;2022-08-19T07:35:09;100258.20;;;26.90
68588;BMP180;55560;52.174;20.996;2022-08-19T07:37:37;100257.60;;;26.94
68588;BMP180;55560;52.174;20.996;2022-08-19T07:40:07;100254.40;;;27.00
68588;BMP180;55560;52.174;20.996;2022-08-19T07:42:36;100255.80;;;27.10
68588;BMP180;55560;52.174;20.996;2022-08-19T07:45:06;100253.60;;;27.12
68588;BMP180;55560;52.174;20.996;2022-08-19T07:47:34;100258.80;;;27.20
68588;BMP180;55560;52.174;20.996;2022-08-19T07:50:19;100261.80;;;27.20
68588;BMP180;55560;52.174;20.996;2022-08-19T07:52:48;100265.40;;;27.30
68588;BMP180;55560;52.174;20.996;2022-08-19T07:55:25;100260.60;;;27.40
68588;BMP180;55560;52.174;20.996;2022-08-19T07:58:15;100259.20;;;27.48
68588;BMP180;55560;52.174;20.996;2022-08-19T08:00:46;100259.00;;;27.50
68588;BMP180;55560;52.174;20.996;2022-08-19T08:03:17;100259.40;;;27.60
68588;BMP180;55560;52.174;20.996;2022-08-19T08:05:46;100259.00;;;27.60
68588;BMP180;55560;52.174;20.996;2022-08-19T08:08:43;100251.60;;;27.70
68588;BMP180;55560;52.174;20.996;2022-08-19T08:11:33;100250.20;;;27.70
68588;BMP180;55560;52.174;20.996;2022-08-19T08:14:04;100248.60;;;27.70
68588;BMP180;55560;52.174;20.996;2022-08-19T08:16:36;100253.00;;;27.72
68588;BMP180;55560;52.174;20.996;2022-08-19T08:19:06;100256.40;;;27.80
68588;BMP180;55560;52.174;20.996;2022-08-19T08:21:58;100263.00;;;27.80
68588;BMP180;55560;52.174;20.996;2022-08-19T08:24:29;100268.60;;;27.78
68588;BMP180;55560;52.174;20.996;2022-08-19T08:27:01;100268.40;;;27.70
68588;BMP180;55560;52.174;20.996;2022-08-19T08:29:37;100265.60;;;27.80
68588;BMP180;55560;52.174;20.996;2022-08-19T08:32:08;100262.00;;;27.76
68588;BMP180;55560;52.174;20.996;2022-08-19T08:34:42;100263.00;;;27.80
68588;BMP180;55560;52.174;20.996;2022-08-19T08:37:10;100265.60;;;27.88
68588;BMP180;55560;52.174;20.996;2022-08-19T08:39:38;100267.20;;;27.90
68588;BMP180;55560;52.174;20.996;2022-08-19T08:42:22;100272.40;;;28.00
68588;BMP180;55560;52.174;20.996;2022-08-19T08:45:03;100264.00;;;28.10
68588;BMP180;55560;52.174;20.996;2022-08-19T08:47:36;100261.00;;;28.20
68588;BMP180;55560;52.174;20.996;2022-08-19T08:52:57;100261.60;;;28.32
68588;BMP180;55560;52.174;20.996;2022-08-19T08:55:29;100267.20;;;28.40
68588;BMP180;55560;52.174;20.996;2022-08-19T08:58:09;100276.60;;;28.50
68588;BMP180;55560;52.174;20.996;2022-08-19T09:00:45;100281.20;;;28.60
68588;BMP180;55560;52.174;20.996;2022-08-19T09:03:27;100284.20;;;28.70
68588;BMP180;55560;52.174;20.996;2022-08-19T09:12:03;100283.00;;;28.90
68588;BMP180;55560;52.174;20.996;2022-08-19T09:17:25;100278.60;;;29.10
68588;BMP180;55560;52.174;20.996;2022-08-19T09:20:17;100276.80;;;29.10
68588;BMP180;55560;52.174;20.996;2022-08-19T09:22:46;100280.40;;;29.10
68588;BMP180;55560;52.174;20.996;2022-08-19T09:25:17;100279.40;;;29.20
68588;BMP180;55560;52.174;20.996;2022-08-19T09:27:54;100285.80;;;29.30
68588;BMP180;55560;52.174;20.996;2022-08-19T09:30:39;100283.80;;;29.40
68588;BMP180;55560;52.174;20.996;2022-08-19T09:33:07;100287.40;;;29.40
68588;BMP180;55560;52.174;20.996;2022-08-19T09:35:35;100287.60;;;29.50
68588;BMP180;55560;52.174;20.996;2022-08-19T09:38:21;100296.80;;;29.50
68588;BMP180;55560;52.174;20.996;2022-08-19T09:40:49;100301.00;;;29.58
68588;BMP180;55560;52.174;20.996;2022-08-19T09:43:17;100294.60;;;29.60
68588;BMP180;55560;52.174;20.996;2022-08-19T09:46:01;100296.00;;;29.60
68588;BMP180;55560;52.174;20.996;2022-08-19T09:48:29;100299.80;;;29.60
68588;BMP180;55560;52.174;20.996;2022-08-19T09:51:12;100302.00;;;29.70
68588;BMP180;55560;52.174;20.996;2022-08-19T09:53:44;100299.00;;;29.78
68588;BMP180;55560;52.174;20.996;2022-08-19T09:56:13;100305.40;;;29.88
68588;BMP180;55560;52.174;20.996;2022-08-19T09:58:41;100301.20;;;29.90
68588;BMP180;55560;52.174;20.996;2022-08-19T10:01:11;100297.40;;;30.00
68588;BMP180;55560;52.174;20.996;2022-08-19T10:03:42;100289.20;;;30.10
68588;BMP180;55560;52.174;20.996;2022-08-19T10:06:10;100284.00;;;30.10
68588;BMP180;55560;52.174;20.996;2022-08-19T10:08:44;100283.80;;;30.20
68588;BMP180;55560;52.174;20.996;2022-08-19T10:11:19;100285.80;;;30.20
68588;BMP180;55560;52.174;20.996;2022-08-19T10:14:06;100278.60;;;30.28
68588;BMP180;55560;52.174;20.996;2022-08-19T10:16:36;100278.20;;;30.30
68588;BMP180;55560;52.174;20.996;2022-08-19T10:19:06;100279.80;;;30.30
68588;BMP180;55560;52.174;20.996;2022-08-19T10:21:34;100276.40;;;30.30
68588;BMP180;55560;52.174;20.996;2022-08-19T10:24:04;100277.40;;;30.30
68588;BMP180;55560;52.174;20.996;2022-08-19T10:26:37;100276.20;;;30.30
68588;BMP180;55560;52.174;20.996;2022-08-19T10:29:05;100275.20;;;30.30
68588;BMP180;55560;52.174;20.996;2022-08-19T10:31:36;100270.60;;;30.40
68588;BMP180;55560;52.174;20.996;2022-08-19T10:34:24;100271.60;;;30.40
68588;BMP180;55560;52.174;20.996;2022-08-19T10:36:56;100272.00;;;30.50
68588;BMP180;55560;52.174;20.996;2022-08-19T10:39:31;100277.40;;;30.50
68588;BMP180;55560;52.174;20.996;2022-08-19T10:42:10;100276.00;;;30.60
68588;BMP180;55560;52.174;20.996;2022-08-19T10:44:41;100274.40;;;30.70
68588;BMP180;55560;52.174;20.996;2022-08-19T10:47:09;100271.60;;;30.70
68588;BMP180;55560;52.174;20.996;2022-08-19T10:49:53;100271.00;;;30.80
68588;BMP180;55560;52.174;20.996;2022-08-19T10:52:46;100280.80;;;30.90
68588;BMP180;55560;52.174;20.996;2022-08-19T10:55:22;100278.40;;;30.90
68588;BMP180;55560;52.174;20.996;2022-08-19T10:58:17;100273.80;;;31.00
68588;BMP180;55560;52.174;20.996;2022-08-19T11:00:55;100268.00;;;31.00
68588;BMP180;55560;52.174;20.996;2022-08-19T11:03:25;100270.00;;;31.10
68588;BMP180;55560;52.174;20.996;2022-08-19T11:06:01;100267.00;;;31.10
68588;BMP180;55560;52.174;20.996;2022-08-19T11:08:29;100268.20;;;31.20
68588;BMP180;55560;52.174;20.996;2022-08-19T11:11:00;100262.80;;;31.30
68588;BMP180;55560;52.174;20.996;2022-08-19T11:13:33;100256.80;;;31.40
68588;BMP180;55560;52.174;20.996;2022-08-19T11:16:10;100253.00;;;31.40
68588;BMP180;55560;52.174;20.996;2022-08-19T11:18:45;100251.00;;;31.40
68588;BMP180;55560;52.174;20.996;2022-08-19T11:21:22;100252.20;;;31.50
68588;BMP180;55560;52.174;20.996;2022-08-19T11:23:54;100246.00;;;31.50
68588;BMP180;55560;52.174;20.996;2022-08-19T11:26:25;100239.20;;;31.50
68588;BMP180;55560;52.174;20.996;2022-08-19T11:28:53;100240.40;;;31.60
68588;BMP180;55560;52.174;20.996;2022-08-19T11:31:27;100242.20;;;31.60
68588;BMP180;55560;52.174;20.996;2022-08-19T11:34:02;100247.00;;;31.70
68588;BMP180;55560;52.174;20.996;2022-08-19T11:36:31;100241.20;;;31.70
68588;BMP180;55560;52.174;20.996;2022-08-19T11:39:04;100239.60;;;31.70
68588;BMP180;55560;52.174;20.996;2022-08-19T11:41:32;100241.00;;;31.80
68588;BMP180;55560;52.174;20.996;2022-08-19T11:44:00;100233.60;;;31.90
68588;BMP180;55560;52.174;20.996;2022-08-19T11:46:31;100224.60;;;31.90
68588;BMP180;55560;52.174;20.996;2022-08-19T11:49:00;100233.20;;;31.90
68588;BMP180;55560;52.174;20.996;2022-08-19T11:51:29;100229.20;;;32.00
68588;BMP180;55560;52.174;20.996;2022-08-19T11:53:59;100227.60;;;31.98
68588;BMP180;55560;52.174;20.996;2022-08-19T11:56:27;100219.20;;;32.00
68588;BMP180;55560;52.174;20.996;2022-08-19T11:58:56;100206.40;;;32.10
68588;BMP180;55560;52.174;20.996;2022-08-19T12:01:25;100206.00;;;32.10
68588;BMP180;55560;52.174;20.996;2022-08-19T12:03:56;100201.20;;;32.10
68588;BMP180;55560;52.174;20.996;2022-08-19T12:06:28;100195.00;;;32.10
68588;BMP180;55560;52.174;20.996;2022-08-19T12:09:05;100191.60;;;32.12
68588;BMP180;55560;52.174;20.996;2022-08-19T12:11:33;100191.00;;;32.20
68588;BMP180;55560;52.174;20.996;2022-08-19T12:14:01;100196.20;;;32.30
68588;BMP180;55560;52.174;20.996;2022-08-19T12:16:30;100195.20;;;32.34
68588;BMP180;55560;52.174;20.996;2022-08-19T12:19:00;100196.80;;;32.40
68588;BMP180;55560;52.174;20.996;2022-08-19T12:21:35;100197.40;;;32.50
68588;BMP180;55560;52.174;20.996;2022-08-19T12:24:05;100192.20;;;32.58
68588;BMP180;55560;52.174;20.996;2022-08-19T12:26:34;100188.60;;;32.70
68588;BMP180;55560;52.174;20.996;2022-08-19T12:29:21;100185.80;;;32.80
68588;BMP180;55560;52.174;20.996;2022-08-19T12:31:51;100192.20;;;32.90
68588;BMP180;55560;52.174;20.996;2022-08-19T12:34:19;100179.80;;;33.00
68588;BMP180;55560;52.174;20.996;2022-08-19T12:36:47;100180.80;;;33.00
68588;BMP180;55560;52.174;20.996;2022-08-19T12:39:17;100180.00;;;33.10
68588;BMP180;55560;52.174;20.996;2022-08-19T12:41:45;100178.80;;;33.20
68588;BMP180;55560;52.174;20.996;2022-08-19T12:44:23;100174.60;;;33.30
68588;BMP180;55560;52.174;20.996;2022-08-19T12:46:58;100169.40;;;33.30
68588;BMP180;55560;52.174;20.996;2022-08-19T12:49:28;100165.60;;;33.30
68588;BMP180;55560;52.174;20.996;2022-08-19T12:52:16;100165.40;;;33.38
68588;BMP180;55560;52.174;20.996;2022-08-19T12:54:52;100168.60;;;33.40
68588;BMP180;55560;52.174;20.996;2022-08-19T12:57:25;100166.40;;;33.40
68588;BMP180;55560;52.174;20.996;2022-08-19T13:00:08;100169.80;;;33.44
68588;BMP180;55560;52.174;20.996;2022-08-19T13:02:43;100166.20;;;33.50
68588;BMP180;55560;52.174;20.996;2022-08-19T13:05:16;100156.00;;;33.56
68588;BMP180;55560;52.174;20.996;2022-08-19T13:07:47;100163.60;;;33.60
68588;BMP180;55560;52.174;20.996;2022-08-19T13:10:19;100158.60;;;33.70
68588;BMP180;55560;52.174;20.996;2022-08-19T13:12:49;100163.60;;;33.82
68588;BMP180;55560;52.174;20.996;2022-08-19T13:15:22;100154.60;;;34.00
68588;BMP180;55560;52.174;20.996;2022-08-19T13:17:52;100160.80;;;34.06
68588;BMP180;55560;52.174;20.996;2022-08-19T13:20:21;100158.20;;;34.10
68588;BMP180;55560;52.174;20.996;2022-08-19T13:22:50;100163.20;;;34.24
68588;BMP180;55560;52.174;20.996;2022-08-19T13:25:18;100166.00;;;34.30
68588;BMP180;55560;52.174;20.996;2022-08-19T13:27:48;100162.80;;;34.38
68588;BMP180;55560;52.174;20.996;2022-08-19T13:30:19;100158.00;;;34.40
68588;BMP180;55560;52.174;20.996;2022-08-19T13:33:06;100164.20;;;34.40
68588;BMP180;55560;52.174;20.996;2022-08-19T13:35:56;100154.60;;;34.40
68588;BMP180;55560;52.174;20.996;2022-08-19T13:38:25;100161.20;;;34.50
68588;BMP180;55560;52.174;20.996;2022-08-19T13:40:54;100157.80;;;34.56
68588;BMP180;55560;52.174;20.996;2022-08-19T13:43:26;100156.00;;;34.50
68588;BMP180;55560;52.174;20.996;2022-08-19T13:45:54;100158.00;;;34.60
68588;BMP180;55560;52.174;20.996;2022-08-19T13:48:25;100158.00;;;34.74
68588;BMP180;55560;52.174;20.996;2022-08-19T13:50:54;100157.80;;;34.98
68588;BMP180;55560;52.174;20.996;2022-08-19T13:53:23;100160.40;;;35.26
68588;BMP180;55560;52.174;20.996;2022-08-19T13:55:51;100172.60;;;35.98
68588;BMP180;55560;52.174;20.996;2022-08-19T13:58:21;100175.20;;;37.06
68588;BMP180;55560;52.174;20.996;2022-08-19T14:00:50;100187.40;;;38.00
68588;BMP180;55560;52.174;20.996;2022-08-19T14:03:18;100190.00;;;38.74
68588;BMP180;55560;52.174;20.996;2022-08-19T14:05:46;100190.40;;;39.76
68588;BMP180;55560;52.174;20.996;2022-08-19T14:08:14;100196.00;;;40.68
68588;BMP180;55560;52.174;20.996;2022-08-19T14:10:42;100193.60;;;41.48
68588;BMP180;55560;52.174;20.996;2022-08-19T14:13:19;100192.20;;;42.02
68588;BMP180;55560;52.174;20.996;2022-08-19T14:15:49;100203.80;;;42.50
68588;BMP180;55560;52.174;20.996;2022-08-19T14:18:18;100206.20;;;43.26
68588;BMP180;55560;52.174;20.996;2022-08-19T14:20:46;100208.40;;;43.74
68588;BMP180;55560;52.174;20.996;2022-08-19T14:23:14;100207.40;;;44.02